Time,TemperatureF,DewpointF,PressureIn,WindDirection,WindDirectionDegrees,WindSpeedMPH,WindSpeedGustMPH,Humidity,HourlyPrecipIn,Conditions,Clouds,dailyrainin,SoftwareType,DateUTC
2013-04-24 00:00:00,63.4,59.5,30.09,NE,34,0.0,0.0,87,0.00,,,0.00,Wunderground v.1.15,2013-04-24 04:00:00,
2013-04-24 00:05:00,63.2,59.6,30.08,NE,34,0.0,0.0,88,0.00,,,0.00,Wunderground v.1.15,2013-04-24 04:05:00,
2013-04-24 00:15:00,62.9,59.3,30.08,NE,34,0.0,0.0,88,0.00,,,0.00,Wunderground v.1.15,2013-04-24 04:15:00,
2013-04-24 00:20:00,62.8,59.2,30.08,NE,34,0.0,0.0,88,0.00,,,0.00,Wunderground v.1.15,2013-04-24 04:20:00,
2013-04-24 00:25:00,62.7,59.1,30.08,NE,34,0.0,0.0,88,0.00,,,0.00,Wunderground v.1.15,2013-04-24 04:25:00,
2013-04-24 00:30:00,62.6,59.3,30.08,NE,34,0.0,0.0,89,0.00,,,0.00,Wunderground v.1.15,2013-04-24 04:30:00,
2013-04-24 00:35:00,62.5,59.2,30.08,NE,34,0.0,0.0,89,0.00,,,0.00,Wunderground v.1.15,2013-04-24 04:35:00,
2013-04-24 00:40:00,62.4,59.1,30.08,NE,34,0.0,0.0,89,0.00,,,0.00,Wunderground v.1.15,2013-04-24 04:40:00,
2013-04-24 00:45:00,62.2,58.9,30.09,NE,34,0.0,0.0,89,0.00,,,0.00,Wunderground v.1.15,2013-04-24 04:45:00,
2013-04-24 00:50:00,62.1,58.8,30.09,NE,34,0.0,0.0,89,0.00,,,0.00,Wunderground v.1.15,2013-04-24 04:50:00,
2013-04-24 00:55:00,62.0,58.7,30.09,NE,34,0.0,0.0,89,0.00,,,0.00,Wunderground v.1.15,2013-04-24 04:55:00,
2013-04-24 01:00:00,61.8,58.5,30.09,NE,34,0.0,0.0,89,0.00,,,0.00,Wunderground v.1.15,2013-04-24 05:00:00,
2013-04-24 01:05:00,61.6,58.3,30.08,NE,34,0.0,0.0,89,0.00,,,0.00,Wunderground v.1.15,2013-04-24 05:05:00,
2013-04-24 01:10:00,61.3,58.0,30.09,NE,34,0.0,0.0,89,0.00,,,0.00,Wunderground v.1.15,2013-04-24 05:10:00,
2013-04-24 01:15:00,60.9,57.6,30.08,NE,34,0.0,0.0,89,0.00,,,0.00,Wunderground v.1.15,2013-04-24 05:15:00,
2013-04-24 01:20:00,60.6,57.3,30.08,NE,34,0.0,0.0,89,0.00,,,0.00,Wunderground v.1.15,2013-04-24 05:20:00,
2013-04-24 01:25:00,60.3,57.0,30.08,NE,34,0.0,0.0,89,0.00,,,0.00,Wunderground v.1.15,2013-04-24 05:25:00,
2013-04-24 01:30:00,59.9,56.6,30.08,NE,34,0.0,0.0,89,0.00,,,0.00,Wunderground v.1.15,2013-04-24 05:30:00,
2013-04-24 01:35:00,59.6,56.4,30.08,NE,34,0.0,0.0,89,0.00,,,0.00,Wunderground v.1.15,2013-04-24 05:35:00,
2013-04-24 01:40:00,59.4,56.2,30.07,NE,34,0.0,0.0,89,0.00,,,0.00,Wunderground v.1.15,2013-04-24 05:40:00,
2013-04-24 01:45:00,59.0,55.8,30.07,NE,34,0.0,0.0,89,0.00,,,0.00,Wunderground v.1.15,2013-04-24 05:45:00,
2013-04-24 01:50:00,59.0,55.8,30.07,NE,34,0.0,0.0,89,0.00,,,0.00,Wunderground v.1.15,2013-04-24 05:50:00,
2013-04-24 01:55:00,58.6,55.4,30.07,NE,34,0.0,0.0,89,0.00,,,0.00,Wunderground v.1.15,2013-04-24 05:55:00,
2013-04-24 02:00:00,58.5,55.6,30.07,NE,34,0.0,0.0,90,0.00,,,0.00,Wunderground v.1.15,2013-04-24 06:00:00,
2013-04-24 02:05:00,58.2,55.3,30.07,NE,34,0.0,0.0,90,0.00,,,0.00,Wunderground v.1.15,2013-04-24 06:05:00,
2013-04-24 02:10:00,57.9,54.7,30.07,NE,34,0.0,0.0,89,0.00,,,0.00,Wunderground v.1.15,2013-04-24 06:10:00,
2013-04-24 02:15:00,57.6,54.4,30.07,NE,34,0.0,0.0,89,0.00,,,0.00,Wunderground v.1.15,2013-04-24 06:15:00,
2013-04-24 02:20:00,57.3,54.1,30.07,NE,34,0.0,0.0,89,0.00,,,0.00,Wunderground v.1.15,2013-04-24 06:20:00,
2013-04-24 02:25:00,57.0,53.8,30.07,NE,34,0.0,0.0,89,0.00,,,0.00,Wunderground v.1.15,2013-04-24 06:25:00,
2013-04-24 02:30:00,56.6,53.4,30.06,NE,34,0.0,0.0,89,0.00,,,0.00,Wunderground v.1.15,2013-04-24 06:30:00,
2013-04-24 02:35:00,56.3,53.1,30.06,NE,34,0.0,0.0,89,0.00,,,0.00,Wunderground v.1.15,2013-04-24 06:35:00,
2013-04-24 02:40:00,56.0,52.8,30.06,NE,34,0.0,0.0,89,0.00,,,0.00,Wunderground v.1.15,2013-04-24 06:40:00,
2013-04-24 02:45:00,55.5,52.3,30.06,NE,34,0.0,0.0,89,0.00,,,0.00,Wunderground v.1.15,2013-04-24 06:45:00,
2013-04-24 02:50:00,55.0,51.8,30.06,NE,34,0.0,0.0,89,0.00,,,0.00,Wunderground v.1.15,2013-04-24 06:50:00,
2013-04-24 02:55:00,54.5,51.3,30.06,NE,34,0.0,0.0,89,0.00,,,0.00,Wunderground v.1.15,2013-04-24 06:55:00,
2013-04-24 03:00:00,54.1,50.9,30.06,NE,34,0.0,0.0,89,0.00,,,0.00,Wunderground v.1.15,2013-04-24 07:00:00,
2013-04-24 03:05:00,53.9,51.0,30.06,NE,34,0.0,0.0,90,0.00,,,0.00,Wunderground v.1.15,2013-04-24 07:05:00,
2013-04-24 03:10:00,53.8,50.9,30.06,NE,34,0.0,0.0,90,0.00,,,0.00,Wunderground v.1.15,2013-04-24 07:10:00,
2013-04-24 03:15:00,53.9,51.0,30.05,NE,34,0.0,0.0,90,0.00,,,0.00,Wunderground v.1.15,2013-04-24 07:15:00,
2013-04-24 03:20:00,54.1,51.5,30.05,NE,34,0.0,0.0,91,0.00,,,0.00,Wunderground v.1.15,2013-04-24 07:20:00,
2013-04-24 03:25:00,54.1,51.5,30.05,NE,34,0.0,0.0,91,0.00,,,0.00,Wunderground v.1.15,2013-04-24 07:25:00,
2013-04-24 03:30:00,54.2,51.6,30.06,NE,34,0.0,0.0,91,0.00,,,0.00,Wunderground v.1.15,2013-04-24 07:30:00,
2013-04-24 03:35:00,54.1,51.5,30.06,NE,34,0.0,0.0,91,0.00,,,0.00,Wunderground v.1.15,2013-04-24 07:35:00,
2013-04-24 03:40:00,53.9,51.3,30.06,NE,34,0.0,0.0,91,0.00,,,0.00,Wunderground v.1.15,2013-04-24 07:40:00,
2013-04-24 03:45:00,53.7,51.1,30.06,NE,34,0.0,0.0,91,0.00,,,0.00,Wunderground v.1.15,2013-04-24 07:45:00,
2013-04-24 03:50:00,53.5,50.9,30.06,NE,34,0.0,0.0,91,0.00,,,0.00,Wunderground v.1.15,2013-04-24 07:50:00,
2013-04-24 03:55:00,53.3,50.7,30.06,NE,34,0.0,0.0,91,0.00,,,0.00,Wunderground v.1.15,2013-04-24 07:55:00,
2013-04-24 04:00:00,53.1,50.5,30.06,NE,34,0.0,0.0,91,0.00,,,0.00,Wunderground v.1.15,2013-04-24 08:00:00,
2013-04-24 04:05:00,53.1,50.5,30.06,NE,34,0.0,0.0,91,0.00,,,0.00,Wunderground v.1.15,2013-04-24 08:05:00,
2013-04-24 04:15:00,52.9,50.3,30.06,NE,34,0.0,0.0,91,0.00,,,0.00,Wunderground v.1.15,2013-04-24 08:15:00,
2013-04-24 04:20:00,52.7,50.1,30.06,NE,34,0.0,0.0,91,0.00,,,0.00,Wunderground v.1.15,2013-04-24 08:20:00,
2013-04-24 04:25:00,52.7,50.1,30.07,NE,34,0.0,0.0,91,0.00,,,0.00,Wunderground v.1.15,2013-04-24 08:25:00,
2013-04-24 04:30:00,52.6,50.0,30.06,NE,34,0.0,0.0,91,0.00,,,0.00,Wunderground v.1.15,2013-04-24 08:30:00,
2013-04-24 04:35:00,52.5,49.9,30.06,NE,34,0.0,0.0,91,0.00,,,0.00,Wunderground v.1.15,2013-04-24 08:35:00,
2013-04-24 04:40:00,52.4,49.8,30.06,NE,34,0.0,0.0,91,0.00,,,0.00,Wunderground v.1.15,2013-04-24 08:40:00,
2013-04-24 04:45:00,52.2,49.7,30.07,NE,34,0.0,0.0,91,0.00,,,0.00,Wunderground v.1.15,2013-04-24 08:45:00,
2013-04-24 04:50:00,51.9,49.4,30.07,NE,34,0.0,0.0,91,0.00,,,0.00,Wunderground v.1.15,2013-04-24 08:50:00,
2013-04-24 04:55:00,51.7,49.2,30.07,NE,34,0.0,0.0,91,0.00,,,0.00,Wunderground v.1.15,2013-04-24 08:55:00,
2013-04-24 05:05:00,51.5,49.0,30.07,NE,34,0.0,0.0,91,0.00,,,0.00,Wunderground v.1.15,2013-04-24 09:05:00,
2013-04-24 05:10:00,51.4,48.9,30.07,NE,34,0.0,0.0,91,0.00,,,0.00,Wunderground v.1.15,2013-04-24 09:10:00,
2013-04-24 05:15:00,51.2,48.7,30.07,NE,34,0.0,0.0,91,0.00,,,0.00,Wunderground v.1.15,2013-04-24 09:15:00,
2013-04-24 05:20:00,51.1,48.6,30.07,NE,34,0.0,0.0,91,0.00,,,0.00,Wunderground v.1.15,2013-04-24 09:20:00,
2013-04-24 05:25:00,51.0,48.8,30.07,NE,34,0.0,0.0,92,0.00,,,0.00,Wunderground v.1.15,2013-04-24 09:25:00,
2013-04-24 05:30:00,51.0,48.8,30.07,NE,34,0.0,0.0,92,0.00,,,0.00,Wunderground v.1.15,2013-04-24 09:30:00,
2013-04-24 05:35:00,50.9,48.7,30.07,NE,34,0.0,0.0,92,0.00,,,0.00,Wunderground v.1.15,2013-04-24 09:35:00,
2013-04-24 05:40:00,50.8,48.6,30.08,NE,34,0.0,0.0,92,0.00,,,0.00,Wunderground v.1.15,2013-04-24 09:40:00,
2013-04-24 05:45:00,50.6,48.4,30.08,NE,34,0.0,0.0,92,0.00,,,0.00,Wunderground v.1.15,2013-04-24 09:45:00,
2013-04-24 05:50:00,50.5,48.3,30.08,NE,34,0.0,0.0,92,0.00,,,0.00,Wunderground v.1.15,2013-04-24 09:50:00,
2013-04-24 05:55:00,50.4,48.2,30.08,NE,34,0.0,0.0,92,0.00,,,0.00,Wunderground v.1.15,2013-04-24 09:55:00,
2013-04-24 06:00:00,50.4,48.2,30.08,NE,34,0.0,0.0,92,0.00,,,0.00,Wunderground v.1.15,2013-04-24 10:00:00,
2013-04-24 06:05:00,50.3,48.1,30.08,NE,34,0.0,0.0,92,0.00,,,0.00,Wunderground v.1.15,2013-04-24 10:05:00,
2013-04-24 06:15:00,50.2,48.0,30.08,NE,34,0.0,0.0,92,0.00,,,0.00,Wunderground v.1.15,2013-04-24 10:15:00,
2013-04-24 06:20:00,50.2,48.0,30.08,NE,34,0.0,0.0,92,0.00,,,0.00,Wunderground v.1.15,2013-04-24 10:20:00,
2013-04-24 06:25:00,50.2,48.0,30.08,NE,34,0.0,0.0,92,0.00,,,0.00,Wunderground v.1.15,2013-04-24 10:25:00,
2013-04-24 06:30:00,50.1,47.9,30.08,NE,34,0.0,0.0,92,0.00,,,0.00,Wunderground v.1.15,2013-04-24 10:30:00,
2013-04-24 06:35:00,50.1,47.9,30.08,NE,34,0.0,0.0,92,0.00,,,0.00,Wunderground v.1.15,2013-04-24 10:35:00,
2013-04-24 06:40:00,50.0,47.8,30.08,NE,34,0.0,0.0,92,0.00,,,0.00,Wunderground v.1.15,2013-04-24 10:40:00,
2013-04-24 06:45:00,50.1,47.9,30.08,NE,34,0.0,0.0,92,0.00,,,0.00,Wunderground v.1.15,2013-04-24 10:45:00,
2013-04-24 06:50:00,50.3,48.4,30.08,NE,34,0.0,0.0,93,0.00,,,0.00,Wunderground v.1.15,2013-04-24 10:50:00,
2013-04-24 06:55:00,50.4,48.5,30.09,NE,34,0.0,0.0,93,0.00,,,0.00,Wunderground v.1.15,2013-04-24 10:55:00,
2013-04-24 07:00:00,50.5,48.6,30.09,NE,34,0.0,0.0,93,0.00,,,0.00,Wunderground v.1.15,2013-04-24 11:00:00,
2013-04-24 07:05:00,50.6,48.7,30.09,NE,34,0.0,0.0,93,0.00,,,0.00,Wunderground v.1.15,2013-04-24 11:05:00,
2013-04-24 07:15:00,50.9,48.9,30.09,NE,34,0.0,0.0,93,0.00,,,0.00,Wunderground v.1.15,2013-04-24 11:15:00,
2013-04-24 07:20:00,51.2,49.2,30.09,NE,34,0.0,0.0,93,0.00,,,0.00,Wunderground v.1.15,2013-04-24 11:20:00,
2013-04-24 07:25:00,51.7,49.7,30.09,NE,34,0.0,0.0,93,0.00,,,0.00,Wunderground v.1.15,2013-04-24 11:25:00,
2013-04-24 07:30:00,52.4,50.7,30.09,NE,34,0.0,0.0,94,0.00,,,0.00,Wunderground v.1.15,2013-04-24 11:30:00,
2013-04-24 07:35:00,53.1,51.4,30.10,NE,34,0.0,0.0,94,0.00,,,0.00,Wunderground v.1.15,2013-04-24 11:35:00,
2013-04-24 07:40:00,54.1,52.4,30.10,NE,34,0.0,0.0,94,0.00,,,0.00,Wunderground v.1.15,2013-04-24 11:40:00,
2013-04-24 07:45:00,55.6,54.2,30.10,NE,34,0.0,0.0,95,0.00,,,0.00,Wunderground v.1.15,2013-04-24 11:45:00,
2013-04-24 07:50:00,57.5,56.1,30.10,NE,34,0.0,0.0,95,0.00,,,0.00,Wunderground v.1.15,2013-04-24 11:50:00,
2013-04-24 07:55:00,58.7,57.3,30.10,NE,34,0.0,0.0,95,0.00,,,0.00,Wunderground v.1.15,2013-04-24 11:55:00,
2013-04-24 08:00:00,59.6,58.2,30.10,NE,34,0.0,0.0,95,0.00,,,0.00,Wunderground v.1.15,2013-04-24 12:00:00,
2013-04-24 08:05:00,60.5,59.1,30.11,NE,34,0.0,0.0,95,0.00,,,0.00,Wunderground v.1.15,2013-04-24 12:05:00,
2013-04-24 08:10:00,61.0,59.6,30.11,NE,34,0.0,0.0,95,0.00,,,0.00,Wunderground v.1.15,2013-04-24 12:10:00,
2013-04-24 08:15:00,61.5,60.1,30.11,NE,34,0.0,0.0,95,0.00,,,0.00,Wunderground v.1.15,2013-04-24 12:15:00,
2013-04-24 08:20:00,62.2,60.8,30.11,NE,34,0.0,2.0,95,0.00,,,0.00,Wunderground v.1.15,2013-04-24 12:20:00,
2013-04-24 08:25:00,62.8,61.3,30.11,NE,34,1.0,3.0,95,0.00,,,0.00,Wunderground v.1.15,2013-04-24 12:25:00,
2013-04-24 08:30:00,63.5,62.0,30.11,NE,34,2.0,3.0,95,0.00,,,0.00,Wunderground v.1.15,2013-04-24 12:30:00,
2013-04-24 08:35:00,64.2,62.7,30.11,NE,34,2.0,3.0,95,0.00,,,0.00,Wunderground v.1.15,2013-04-24 12:35:00,
2013-04-24 08:40:00,65.0,63.5,30.11,NE,34,2.0,2.0,95,0.00,,,0.00,Wunderground v.1.15,2013-04-24 12:40:00,
2013-04-24 08:45:00,65.6,63.8,30.11,NE,34,2.0,2.0,94,0.00,,,0.00,Wunderground v.1.15,2013-04-24 12:45:00,
2013-04-24 08:50:00,66.1,64.3,30.11,NE,34,2.0,3.0,94,0.00,,,0.00,Wunderground v.1.15,2013-04-24 12:50:00,
2013-04-24 08:55:00,66.5,64.4,30.11,NE,34,2.0,4.0,93,0.00,,,0.00,Wunderground v.1.15,2013-04-24 12:55:00,
2013-04-24 09:00:00,66.9,64.5,30.11,NE,34,2.0,2.0,92,0.00,,,0.00,Wunderground v.1.15,2013-04-24 13:00:00,
2013-04-24 09:05:00,67.9,65.5,30.12,NE,34,1.0,2.0,92,0.00,,,0.00,Wunderground v.1.15,2013-04-24 13:05:00,
2013-04-24 09:10:00,68.4,65.4,30.11,NE,34,0.0,0.0,90,0.00,,,0.00,Wunderground v.1.15,2013-04-24 13:10:00,
2013-04-24 09:15:00,69.0,65.6,30.11,NE,34,0.0,0.0,89,0.00,,,0.00,Wunderground v.1.15,2013-04-24 13:15:00,
2013-04-24 09:20:00,69.6,65.9,30.12,NE,34,0.0,0.0,88,0.00,,,0.00,Wunderground v.1.15,2013-04-24 13:20:00,
2013-04-24 09:25:00,70.3,66.2,30.12,NE,34,0.0,0.0,87,0.00,,,0.00,Wunderground v.1.15,2013-04-24 13:25:00,
2013-04-24 09:30:00,70.7,66.3,30.11,NE,34,0.0,0.0,86,0.00,,,0.00,Wunderground v.1.15,2013-04-24 13:30:00,
2013-04-24 09:35:00,71.3,66.2,30.12,NE,34,1.0,4.0,84,0.00,,,0.00,Wunderground v.1.15,2013-04-24 13:35:00,
2013-04-24 09:40:00,71.5,65.7,30.12,NE,34,2.0,2.0,82,0.00,,,0.00,Wunderground v.1.15,2013-04-24 13:40:00,
2013-04-24 09:45:00,72.0,65.8,30.12,NE,34,3.0,3.0,81,0.00,,,0.00,Wunderground v.1.15,2013-04-24 13:45:00,
2013-04-24 09:50:00,72.2,66.0,30.12,NE,34,2.0,2.0,81,0.00,,,0.00,Wunderground v.1.15,2013-04-24 13:50:00,
2013-04-24 09:55:00,72.6,65.7,30.12,ENE,57,2.0,6.0,79,0.00,,,0.00,Wunderground v.1.15,2013-04-24 13:55:00,
2013-04-24 10:00:00,72.9,65.6,30.12,NE,56,4.0,4.0,78,0.00,,,0.00,Wunderground v.1.15,2013-04-24 14:00:00,
2013-04-24 10:05:00,73.3,66.0,30.12,ENE,61,3.0,4.0,78,0.00,,,0.00,Wunderground v.1.15,2013-04-24 14:05:00,
2013-04-24 10:15:00,74.0,65.6,30.12,ESE,110,3.0,4.0,75,0.00,,,0.00,Wunderground v.1.15,2013-04-24 14:15:00,
2013-04-24 10:20:00,74.3,65.9,30.12,East,88,3.0,3.0,75,0.00,,,0.00,Wunderground v.1.15,2013-04-24 14:20:00,
2013-04-24 10:25:00,74.8,66.7,30.12,SE,136,3.0,4.0,76,0.00,,,0.00,Wunderground v.1.15,2013-04-24 14:25:00,
2013-04-24 10:30:00,74.9,66.4,30.11,SE,133,4.0,4.0,75,0.00,,,0.00,Wunderground v.1.15,2013-04-24 14:30:00,
2013-04-24 10:35:00,75.0,66.5,30.11,SE,139,5.0,5.0,75,0.00,,,0.00,Wunderground v.1.15,2013-04-24 14:35:00,
2013-04-24 10:40:00,75.5,66.6,30.11,SE,138,3.0,3.0,74,0.00,,,0.00,Wunderground v.1.15,2013-04-24 14:40:00,
2013-04-24 10:45:00,75.7,67.2,30.11,SSE,161,3.0,4.0,75,0.00,,,0.00,Wunderground v.1.15,2013-04-24 14:45:00,
2013-04-24 10:50:00,75.8,67.3,30.11,SE,146,5.0,6.0,75,0.00,,,0.00,Wunderground v.1.15,2013-04-24 14:50:00,
2013-04-24 10:55:00,76.0,66.7,30.12,South,172,6.0,7.0,73,0.00,,,0.00,Wunderground v.1.15,2013-04-24 14:55:00,
2013-04-24 11:00:00,76.2,66.9,30.12,SE,144,6.0,6.0,73,0.00,,,0.00,Wunderground v.1.15,2013-04-24 15:00:00,
2013-04-24 11:05:00,76.6,66.9,30.12,SE,144,6.0,6.0,72,0.00,,,0.00,Wunderground v.1.15,2013-04-24 15:05:00,
2013-04-24 11:10:00,76.9,66.0,30.12,SE,134,5.0,5.0,69,0.00,,,0.00,Wunderground v.1.15,2013-04-24 15:10:00,
2013-04-24 11:20:00,77.2,66.2,30.11,ESE,117,2.0,10.0,69,0.00,,,0.00,Wunderground v.1.15,2013-04-24 15:20:00,
2013-04-24 11:25:00,77.3,65.5,30.11,ENE,74,3.0,10.0,67,0.00,,,0.00,Wunderground v.1.15,2013-04-24 15:25:00,
2013-04-24 11:30:00,77.5,65.7,30.11,SE,127,4.0,4.0,67,0.00,,,0.00,Wunderground v.1.15,2013-04-24 15:30:00,
2013-04-24 11:40:00,78.0,66.6,30.11,SE,144,5.0,11.0,68,0.00,,,0.00,Wunderground v.1.15,2013-04-24 15:40:00,
2013-04-24 11:45:00,78.0,64.8,30.11,SE,125,6.0,11.0,64,0.00,,,0.00,Wunderground v.1.15,2013-04-24 15:45:00,
2013-04-24 11:50:00,78.0,63.9,30.10,SE,127,4.0,4.0,62,0.00,,,0.00,Wunderground v.1.15,2013-04-24 15:50:00,
2013-04-24 12:00:00,78.7,65.0,30.10,SSE,148,3.0,5.0,63,0.00,,,0.00,Wunderground v.1.15,2013-04-24 16:00:00,
2013-04-24 12:05:00,79.1,66.3,30.10,SSE,161,5.0,10.0,65,0.00,,,0.00,Wunderground v.1.15,2013-04-24 16:05:00,
2013-04-24 12:15:00,79.5,65.8,30.09,SSE,152,5.0,6.0,63,0.00,,,0.00,Wunderground v.1.15,2013-04-24 16:15:00,
2013-04-24 12:20:00,79.5,65.3,30.09,ESE,123,3.0,3.0,62,0.00,,,0.00,Wunderground v.1.15,2013-04-24 16:20:00,
2013-04-24 12:25:00,79.7,65.5,30.09,SE,143,3.0,3.0,62,0.00,,,0.00,Wunderground v.1.15,2013-04-24 16:25:00,
2013-04-24 12:30:00,79.8,64.7,30.09,SSE,147,3.0,4.0,60,0.00,,,0.00,Wunderground v.1.15,2013-04-24 16:30:00,
2013-04-24 12:35:00,79.8,64.7,30.09,SE,137,4.0,4.0,60,0.00,,,0.00,Wunderground v.1.15,2013-04-24 16:35:00,
2013-04-24 12:45:00,80.0,64.9,30.08,SE,126,3.0,5.0,60,0.00,,,0.00,Wunderground v.1.15,2013-04-24 16:45:00,
2013-04-24 12:50:00,80.1,64.5,30.08,East,98,2.0,4.0,59,0.00,,,0.00,Wunderground v.1.15,2013-04-24 16:50:00,
2013-04-24 12:55:00,80.5,65.8,30.09,SSE,148,3.0,4.0,61,0.00,,,0.00,Wunderground v.1.15,2013-04-24 16:55:00,
2013-04-24 13:00:00,81.2,65.0,30.09,SSE,167,3.0,7.0,58,0.00,,,0.00,Wunderground v.1.15,2013-04-24 17:00:00,
2013-04-24 13:05:00,81.2,65.0,30.08,SSE,148,4.0,7.0,58,0.00,,,0.00,Wunderground v.1.15,2013-04-24 17:05:00,
2013-04-24 13:15:00,81.4,64.2,30.08,SSE,148,4.0,10.0,56,0.00,,,0.00,Wunderground v.1.15,2013-04-24 17:15:00,
2013-04-24 13:20:00,81.4,64.7,30.08,SE,143,6.0,6.0,57,0.00,,,0.00,Wunderground v.1.15,2013-04-24 17:20:00,
2013-04-24 13:25:00,81.5,65.3,30.08,SSE,164,5.0,6.0,58,0.00,,,0.00,Wunderground v.1.15,2013-04-24 17:25:00,
2013-04-24 13:30:00,82.1,65.9,30.08,SE,144,4.0,7.0,58,0.00,,,0.00,Wunderground v.1.15,2013-04-24 17:30:00,
2013-04-24 13:35:00,82.2,65.4,30.08,SSE,154,4.0,7.0,57,0.00,,,0.00,Wunderground v.1.15,2013-04-24 17:35:00,